Aviation Digital Data Service (ADDS)

Output produced by METARs form (1313 UTC 21 May 2018)
found at http://aviationweather.gov/adds/metars/
 
KHDC 211255Z AUTO 00000KT 10SM SCT075 23/21 A3004 RMK AO2